createdAt,value
2022-12-25T00:00:03.209Z,6.5
2022-12-25T00:05:02.013Z,6.4
2022-12-25T00:15:01.087Z,6.4
2022-12-25T00:30:00.991Z,6.4
2022-12-25T00:45:01.120Z,6.4
2022-12-25T00:55:02.022Z,6.5
2022-12-25T01:00:03.695Z,6.5
2022-12-25T01:10:00.991Z,6.6
2022-12-25T01:15:01.032Z,6.6
2022-12-25T01:30:01.919Z,6.6
2022-12-25T01:45:00.990Z,6.6
2022-12-25T02:00:03.190Z,6.5
2022-12-25T02:15:05.153Z,6.5
2022-12-25T02:30:00.998Z,6.5
2022-12-25T02:45:00.985Z,6.6
2022-12-25T03:00:02.932Z,6.6
2022-12-25T03:10:01.193Z,6.5
2022-12-25T03:15:00.957Z,6.5
2022-12-25T03:30:01.022Z,6.5
2022-12-25T03:45:02.037Z,6.5
2022-12-25T04:00:03.097Z,6.5
2022-12-25T04:15:00.994Z,6.5
2022-12-25T04:20:01.103Z,6.6
2022-12-25T04:30:01.230Z,6.6
2022-12-25T04:45:01.066Z,6.5
2022-12-25T04:55:01.135Z,6.4
2022-12-25T05:00:03.035Z,6.4
2022-12-25T05:05:01.040Z,6.3
2022-12-25T05:15:01.339Z,6.3
2022-12-25T05:30:01.047Z,6.3
2022-12-25T05:45:01.080Z,6.3
2022-12-25T05:55:01.109Z,6.2
2022-12-25T06:00:02.552Z,6.2
2022-12-25T06:15:02.161Z,6.2
2022-12-25T06:20:01.009Z,6.3
2022-12-25T06:30:01.102Z,6.4
2022-12-25T06:40:01.041Z,6.5
2022-12-25T06:45:01.167Z,6.5
2022-12-25T06:50:01.011Z,6.6
2022-12-25T07:00:02.838Z,6.7
2022-12-25T07:15:01.051Z,6.7
2022-12-25T07:20:01.049Z,6.8
2022-12-25T07:30:01.244Z,6.8
2022-12-25T07:45:01.055Z,6.8
2022-12-25T08:00:03.037Z,6.8
2022-12-25T08:15:11.093Z,6.8
2022-12-25T08:30:01.011Z,6.8
2022-12-25T08:45:01.112Z,6.8
2022-12-25T08:50:01.100Z,6.9
2022-12-25T09:00:02.644Z,6.9
2022-12-25T09:10:01.347Z,7.0
2022-12-25T09:15:01.231Z,7.0
2022-12-25T09:30:01.576Z,7.1
2022-12-25T09:45:01.427Z,7.1
2022-12-25T10:00:03.419Z,7.1
2022-12-25T10:15:01.096Z,7.2
2022-12-25T10:30:01.067Z,7.2
2022-12-25T10:35:01.598Z,7.3
2022-12-25T10:45:01.300Z,7.3
2022-12-25T10:50:01.263Z,7.4
2022-12-25T11:00:03.356Z,7.5
2022-12-25T11:15:01.129Z,7.5
2022-12-25T11:20:01.193Z,7.6
2022-12-25T11:30:01.253Z,7.6
2022-12-25T11:45:01.421Z,7.6
2022-12-25T11:50:01.322Z,7.7
2022-12-25T12:00:02.886Z,7.7
2022-12-25T12:05:01.140Z,7.8
2022-12-25T12:15:01.128Z,7.8
2022-12-25T12:25:10.964Z,7.9
2022-12-25T12:30:01.121Z,7.9
2022-12-25T12:45:01.163Z,7.9
2022-12-25T13:00:08.866Z,7.9
2022-12-25T13:15:01.354Z,7.9
2022-12-25T13:20:01.118Z,8.0
2022-12-25T13:30:01.334Z,7.9
2022-12-25T13:45:01.389Z,7.9
2022-12-25T14:00:15.869Z,7.9
2022-12-25T14:30:01.453Z,7.9
2022-12-25T14:45:07.418Z,7.9
2022-12-25T14:50:01.126Z,8.0
2022-12-25T15:00:03.347Z,8.0
2022-12-25T15:10:28.920Z,8.1
2022-12-25T15:15:01.325Z,8.1
2022-12-25T15:30:10.332Z,8.1
2022-12-25T15:40:02.284Z,8.0
2022-12-25T15:45:01.012Z,8.0
2022-12-25T16:00:02.652Z,8.0
2022-12-25T16:15:02.092Z,8.0
2022-12-25T16:20:01.169Z,7.9
2022-12-25T16:30:01.382Z,7.9
2022-12-25T16:45:01.169Z,7.9
2022-12-25T17:00:03.523Z,7.9
2022-12-25T17:05:01.532Z,7.8
2022-12-25T17:10:01.076Z,7.9
2022-12-25T17:15:01.190Z,7.9
2022-12-25T17:30:07.082Z,7.9
2022-12-25T17:45:01.099Z,7.9
2022-12-25T18:00:03.281Z,7.9
2022-12-25T18:15:06.257Z,7.9
2022-12-25T18:30:01.131Z,7.8
2022-12-25T18:45:01.242Z,7.8
2022-12-25T19:00:03.729Z,7.8
2022-12-25T19:15:01.333Z,7.8
2022-12-25T19:30:01.366Z,7.7
2022-12-25T19:45:01.483Z,7.7
2022-12-25T20:00:02.831Z,7.7
2022-12-25T20:15:01.205Z,7.6
2022-12-25T20:30:06.184Z,7.7
2022-12-25T20:40:01.250Z,7.6
2022-12-25T20:45:01.195Z,7.6
2022-12-25T21:00:03.237Z,7.6
2022-12-25T21:15:11.743Z,7.6
2022-12-25T21:30:14.655Z,7.5
2022-12-25T21:45:01.561Z,7.5
2022-12-25T21:50:01.197Z,7.4
2022-12-25T22:00:03.184Z,7.4
2022-12-25T22:15:01.403Z,7.3
2022-12-25T22:30:01.499Z,7.3
2022-12-25T22:35:01.260Z,7.2
2022-12-25T22:45:01.557Z,7.2
2022-12-25T23:00:02.799Z,7.2
2022-12-25T23:15:15.948Z,7.2
2022-12-25T23:30:01.198Z,7.1
2022-12-25T23:45:01.283Z,7.1
